Terminal Aerodrome Forecast
Issued by NWS

Home | Current Version | Previous Version | Text Only | Print | Product List | Glossary On
Versions: 1 2 3 4 5 6 7 8 9 10 11 12 13 14 15 16 17 18 19 20 21 22
000
FTUS44 KLZK 080534
TAFHOT
TAF
KHOT 080534Z 0806/0906 18005KT P6SM SCT120 OVC250
      TEMPO 0810/0814 BKN015
     FM081400 23010KT P6SM SCT040 OVC100
     FM082100 21009KT P6SM SCT050 BKN150
     FM090300 VRB03KT P6SM SCT025 BKN050=

USA.gov is the U.S. government's official web portal to all federal, state and local government web resources and services.